Time;durP1;ratioP1;P1;durP2;ratioP2;P2;SDS_P1;SDS_P2;PMS_P1;PMS_P2;Temp;Humidity;BMP_temperature;BMP_pressure;BME280_temperature;BME280_humidity;BME280_pressure;Samples;Min_cycle;Max_cycle;Signal;HPM_P1;HPM_P2
2022/05/25 00:01:57;;;;;;;;;2.00;2.00;;;;;15.04;57.65;101141.16;6312335;22;45489;-83
2022/05/25 00:04:24;;;;;;;;;2.50;2.50;;;;;15.01;57.74;101136.78;6311985;22;45238;-84
2022/05/25 00:06:52;;;;;;;;;3.00;3.00;;;;;14.98;57.79;101128.88;6311917;22;45474;-84
2022/05/25 00:09:18;;;;;;;;;3.50;3.00;;;;;15.02;57.97;101135.00;6336632;22;47003;-83
2022/05/25 00:11:44;;;;;;;;;2.00;2.00;;;;;15.00;58.02;101127.94;6312312;22;45328;-87
2022/05/25 00:14:10;;;;;;;;;2.25;2.00;;;;;15.00;58.21;101127.09;6336959;22;45560;-84
2022/05/25 00:16:36;;;;;;;;;2.00;2.00;;;;;14.97;57.88;101124.47;6340032;22;45392;-85
2022/05/25 00:21:45;;;;;;;;;3.00;3.00;;;;;14.90;58.02;101121.03;6341992;22;45152;-84
2022/05/25 00:24:11;;;;;;;;;3.25;3.00;;;;;14.92;58.11;101129.84;6341545;22;45228;-84
2022/05/25 00:26:37;;;;;;;;;3.00;2.75;;;;;14.90;58.13;101134.28;6314189;22;45423;-86
2022/05/25 00:29:03;;;;;;;;;3.50;3.50;;;;;14.86;58.16;101129.94;6314076;22;47132;-85
2022/05/25 00:31:29;;;;;;;;;2.00;2.00;;;;;14.88;58.15;101135.22;6315016;22;45653;-85
2022/05/25 00:33:54;;;;;;;;;1.33;1.33;;;;;14.84;58.39;101130.88;6341857;22;44783;-85
2022/05/25 00:36:20;;;;;;;;;2.00;2.00;;;;;14.84;58.53;101134.41;6312003;22;45636;-85
2022/05/25 00:38:45;;;;;;;;;1.00;1.00;;;;;14.81;58.43;101133.53;6337519;22;47085;-85
2022/05/25 00:41:11;;;;;;;;;2.00;2.00;;;;;14.80;58.85;101142.41;6311026;22;45626;-84
2022/05/25 00:43:37;;;;;;;;;1.00;1.00;;;;;14.79;59.16;101141.53;6306119;22;45428;-84
2022/05/25 00:46:08;;;;;;;;;1.00;1.00;;;;;14.78;59.17;101137.13;6305400;22;45477;-85
2022/05/25 00:48:40;;;;;;;;;4.75;3.25;;;;;14.73;58.93;101142.50;6305757;22;47122;-84
2022/05/25 00:51:15;;;;;;;;;2.00;2.00;;;;;14.74;59.24;101153.97;6308352;22;45200;-84
2022/05/25 00:53:48;;;;;;;;;3.00;2.00;;;;;14.69;59.18;101148.72;6308584;22;45314;-84
2022/05/25 00:56:20;;;;;;;;;0.25;0.25;;;;;14.67;59.08;101147.88;6310357;22;45508;-84
2022/05/25 00:58:56;;;;;;;;;2.75;2.75;;;;;14.66;59.34;101155.84;6310185;22;45974;-84
2022/05/25 01:01:21;;;;;;;;;3.50;1.50;;;;;14.64;59.45;101160.31;6310897;22;45358;-84
2022/05/25 01:03:47;;;;;;;;;1.00;1.00;;;;;14.60;59.41;101154.19;6310332;22;45369;-84
2022/05/25 01:06:40;;;;;;;;;2.00;2.00;;;;;14.58;59.21;101163.03;6303059;22;45204;-84
2022/05/25 01:09:30;;;;;;;;;2.00;1.75;;;;;14.52;59.41;101156.94;6312175;22;46060;-84
2022/05/25 01:12:11;;;;;;;;;1.00;1.00;;;;;14.49;59.54;101167.53;6310067;22;45175;-84
2022/05/25 01:14:46;;;;;;;;;1.00;1.00;;;;;14.48;59.39;101168.41;6283416;22;45347;-85
2022/05/25 01:17:30;;;;;;;;;3.75;2.00;;;;;14.43;59.43;101172.88;6283296;22;45310;-84
2022/05/25 01:20:16;;;;;;;;;2.50;2.00;;;;;14.38;59.93;101172.09;6310152;22;47879;-85
2022/05/25 01:22:41;;;;;;;;;3.50;3.50;;;;;14.33;59.95;101176.56;6310277;22;45320;-84
2022/05/25 01:25:13;;;;;;;;;0.67;0.67;;;;;14.31;60.19;101167.75;6284223;22;45390;-84
2022/05/25 01:27:43;;;;;;;;;1.25;1.25;;;;;14.27;60.00;101171.31;6283217;22;45581;-84
2022/05/25 01:30:16;;;;;;;;;2.00;2.00;;;;;14.21;60.26;101168.75;6282082;22;46888;-84
2022/05/25 01:33:03;;;;;;;;;2.00;1.00;;;;;14.21;60.17;101177.56;6310266;22;45397;-83
2022/05/25 01:35:43;;;;;;;;;1.00;1.00;;;;;14.17;60.58;101180.31;6281903;22;45240;-85
2022/05/25 01:38:22;;;;;;;;;0.50;0.50;;;;;14.07;60.27;101175.09;6282831;22;45459;-84
2022/05/25 01:40:48;;;;;;;;;1.00;1.00;;;;;14.05;60.81;101176.88;6311783;22;45400;-84
2022/05/25 01:43:19;;;;;;;;;2.25;2.00;;;;;14.02;61.03;101187.50;6310311;22;45223;-84
2022/05/25 01:45:50;;;;;;;;;1.00;1.00;;;;;14.00;61.18;101197.22;6315552;22;45278;-84
2022/05/25 01:48:20;;;;;;;;;2.00;2.00;;;;;13.99;61.10;101192.84;6316552;22;45596;-85
2022/05/25 01:50:53;;;;;;;;;1.00;1.00;;;;;13.97;61.65;101188.44;6315176;22;46767;-85
2022/05/25 01:53:23;;;;;;;;;2.00;0.75;;;;;13.95;61.57;101190.22;6342689;22;45248;-85
2022/05/25 01:55:54;;;;;;;;;0.25;0.25;;;;;13.98;61.82;101199.03;6346406;22;45369;-84
2022/05/25 01:58:23;;;;;;;;;2.00;2.00;;;;;13.92;61.15;101191.13;6313961;22;45433;-83
2022/05/25 02:00:56;;;;;;;;;2.00;1.00;;;;;13.95;61.43;101190.22;6341729;22;45340;-85
2022/05/25 02:06:40;;;;;;;;;1.00;1.00;;;;;13.97;61.71;101193.75;6345607;22;45385;-84
2022/05/25 02:09:56;;;;;;;;;3.00;3.00;;;;;13.92;61.92;101187.63;6316207;22;45129;-85
2022/05/25 02:13:07;;;;;;;;;2.00;2.00;;;;;13.88;61.92;101190.31;6218409;22;47062;-84
2022/05/25 02:15:52;;;;;;;;;1.00;1.00;;;;;13.92;61.53;101199.06;6345460;22;45381;-85
2022/05/25 02:18:36;;;;;;;;;5.00;4.00;;;;;13.92;62.05;101206.16;6317781;22;45362;-84
2022/05/25 02:21:20;;;;;;;;;2.25;2.25;;;;;13.86;61.93;101207.97;6346634;22;45595;-85
2022/05/25 02:24:01;;;;;;;;;3.00;2.00;;;;;13.80;62.07;101205.38;6344390;22;46150;-83
2022/05/25 02:26:37;;;;;;;;;1.50;1.00;;;;;13.79;61.92;101214.22;6342609;22;45175;-83
2022/05/25 02:29:08;;;;;;;;;3.00;3.00;;;;;13.78;62.38;101207.16;6345182;22;45170;-84
2022/05/25 02:31:40;;;;;;;;;5.50;5.00;;;;;13.77;62.25;101207.19;6315913;22;45365;-84
2022/05/25 02:34:10;;;;;;;;;3.00;3.00;;;;;13.74;62.37;101202.81;6344012;22;46344;-85
2022/05/25 02:36:38;;;;;;;;;2.25;2.25;;;;;13.74;62.23;101213.38;6344608;22;45247;-84
2022/05/25 02:39:09;;;;;;;;;5.75;4.00;;;;;13.70;62.11;101202.84;6343479;22;45155;-85
2022/05/25 02:41:43;;;;;;;;;4.00;2.75;;;;;13.69;62.33;101223.13;6315470;22;45395;-85
2022/05/25 02:44:12;;;;;;;;;4.50;4.00;;;;;13.66;62.42;101218.75;6318366;22;46840;-83
2022/05/25 02:46:38;;;;;;;;;1.75;1.75;;;;;13.64;62.73;101222.28;6317746;22;45251;-85
2022/05/25 02:49:03;;;;;;;;;4.00;4.00;;;;;13.64;62.69;101230.22;6318544;22;45336;-83
2022/05/25 02:51:28;;;;;;;;;3.75;3.75;;;;;13.59;62.87;101227.63;6343628;22;45209;-84
2022/05/25 02:53:54;;;;;;;;;2.00;2.00;;;;;13.59;63.29;101227.63;6344590;22;45419;-84
2022/05/25 02:56:19;;;;;;;;;1.50;1.50;;;;;13.63;63.32;101234.66;6315926;22;45368;-83
2022/05/25 02:58:45;;;;;;;;;2.00;2.00;;;;;13.60;63.18;101229.34;6316915;22;45354;-83
2022/05/25 03:01:11;;;;;;;;;3.00;3.00;;;;;13.55;63.56;101231.19;6314879;22;46050;-84
2022/05/25 03:03:37;;;;;;;;;2.00;2.00;;;;;13.56;63.42;101229.41;6314329;22;47813;-83
2022/05/25 03:06:08;;;;;;;;;3.50;3.50;;;;;13.53;63.42;101232.97;6343005;22;45352;-83
2022/05/25 03:08:35;;;;;;;;;5.00;2.75;;;;;13.59;63.33;101250.56;6314667;22;45145;-84
2022/05/25 03:11:02;;;;;;;;;2.25;2.00;;;;;13.56;63.68;101247.94;6314536;22;45942;-84
2022/05/25 03:13:28;;;;;;;;;2.25;2.25;;;;;13.53;63.79;101246.19;6341107;22;47936;-83
2022/05/25 03:15:57;;;;;;;;;2.25;2.25;;;;;13.50;63.64;101245.31;6315253;22;45485;-84
2022/05/25 03:18:22;;;;;;;;;5.00;5.00;;;;;13.55;64.10;101262.03;6343145;22;45188;-83
2022/05/25 03:20:49;;;;;;;;;5.00;5.00;;;;;13.48;63.87;101257.69;6314121;22;45542;-84
2022/05/25 03:23:17;;;;;;;;;7.00;6.00;;;;;13.50;64.16;101258.53;6340464;22;48271;-84
2022/05/25 03:25:43;;;;;;;;;2.00;2.00;;;;;13.42;64.30;101253.34;6343056;22;45315;-84
2022/05/25 03:28:08;;;;;;;;;2.00;2.00;;;;;13.43;64.57;101263.88;6315232;22;45332;-84
2022/05/25 03:30:34;;;;;;;;;2.25;2.25;;;;;13.41;64.55;101259.50;6342748;22;45113;-84
2022/05/25 03:33:00;;;;;;;;;3.25;3.25;;;;;13.45;64.47;101271.81;6314548;22;47030;-84
2022/05/25 03:35:26;;;;;;;;;2.25;2.25;;;;;13.38;64.49;101272.75;6314662;22;46117;-84
2022/05/25 03:37:51;;;;;;;;;4.75;4.75;;;;;13.45;64.69;101282.41;6317502;22;45217;-84
2022/05/25 03:40:17;;;;;;;;;5.50;5.50;;;;;13.46;64.50;101294.72;6316004;22;45317;-83
2022/05/25 03:42:45;;;;;;;;;6.50;5.00;;;;;13.43;64.37;101292.97;6314514;22;47045;-84
2022/05/25 03:45:14;;;;;;;;;5.00;5.00;;;;;13.45;64.31;101296.50;6314056;22;45243;-83
2022/05/25 03:47:39;;;;;;;;;2.00;2.00;;;;;13.42;64.60;101293.00;6314803;22;45232;-84
2022/05/25 03:50:05;;;;;;;;;2.25;2.25;;;;;13.46;64.44;101302.66;6314501;22;45213;-84
2022/05/25 03:52:31;;;;;;;;;2.25;2.00;;;;;13.49;64.48;101312.34;6314109;22;47306;-84
2022/05/25 03:54:56;;;;;;;;;4.25;4.25;;;;;13.45;64.48;101304.44;6314167;22;45527;-85
2022/05/25 03:57:22;;;;;;;;;3.25;3.25;;;;;13.46;64.44;101307.94;6343505;22;45227;-85
2022/05/25 03:59:47;;;;;;;;;2.50;2.50;;;;;13.45;64.64;101314.16;6314572;22;45432;-83
2022/05/25 04:02:13;;;;;;;;;4.50;2.00;;;;;13.43;64.78;101313.28;6340005;22;46824;-84
2022/05/25 04:04:39;;;;;;;;;3.00;3.00;;;;;13.39;64.31;101300.94;6341088;22;45758;-83
2022/05/25 04:07:08;;;;;;;;;1.50;1.50;;;;;13.42;64.27;101312.41;6316088;22;45185;-84
2022/05/25 04:09:33;;;;;;;;;4.00;4.00;;;;;13.39;64.63;101300.94;6314160;22;45382;-84
2022/05/25 04:11:59;;;;;;;;;3.25;3.25;;;;;13.38;64.63;101308.00;6342602;22;45575;-85
2022/05/25 04:14:24;;;;;;;;;3.00;3.00;;;;;13.39;64.92;101314.16;6340356;22;45188;-84
2022/05/25 04:16:50;;;;;;;;;2.75;2.75;;;;;13.46;65.01;101321.19;6314644;22;45338;-85
2022/05/25 04:19:17;;;;;;;;;2.00;2.00;;;;;13.40;64.97;101310.66;6313677;22;45151;-84
2022/05/25 04:21:43;;;;;;;;;3.00;3.00;;;;;13.45;64.86;101325.59;6314171;22;46909;-84
2022/05/25 04:24:08;;;;;;;;;3.00;3.00;;;;;13.48;64.97;101321.19;6342835;22;45256;-84
2022/05/25 04:26:34;;;;;;;;;3.00;2.25;;;;;13.44;64.71;101323.84;6341116;22;45259;-85
2022/05/25 04:29:02;;;;;;;;;2.50;2.25;;;;;13.51;64.84;101329.09;6313265;22;45523;-84
2022/05/25 04:31:28;;;;;;;;;5.25;4.25;;;;;13.48;65.15;101318.53;6314581;22;47218;-85
2022/05/25 04:33:54;;;;;;;;;4.50;4.25;;;;;13.55;64.98;101337.00;6313740;22;45232;-84
2022/05/25 04:36:20;;;;;;;;;4.00;4.00;;;;;13.52;64.92;101323.78;6315043;22;45366;-85
2022/05/25 04:38:46;;;;;;;;;3.75;3.75;;;;;13.50;64.81;101327.31;6343203;22;45165;-84
2022/05/25 04:41:12;;;;;;;;;4.00;4.00;;;;;13.52;65.06;101337.00;6339136;22;47907;-85
2022/05/25 04:43:38;;;;;;;;;5.00;3.00;;;;;13.57;65.08;101350.22;6343020;22;45164;-84
2022/05/25 04:46:12;;;;;;;;;3.75;3.00;;;;;13.54;64.98;101337.88;6314570;22;45160;-85
2022/05/25 04:48:38;;;;;;;;;6.00;4.50;;;;;13.57;65.17;101340.50;6342375;22;45175;-84
2022/05/25 04:51:04;;;;;;;;;6.00;4.50;;;;;13.56;65.13;101345.81;6314768;22;47216;-83
2022/05/25 04:53:30;;;;;;;;;6.00;6.00;;;;;13.57;64.77;101351.09;6314367;22;45370;-84
2022/05/25 04:58:44;;;;;;;;;3.50;3.50;;;;;13.54;64.90;101369.63;6342268;22;45465;-84
2022/05/25 05:01:12;;;;;;;;;4.50;4.25;;;;;13.55;64.94;101371.41;6340441;22;47224;-84
2022/05/25 05:03:38;;;;;;;;;4.25;4.25;;;;;13.54;64.68;101366.09;6314275;22;45261;-84
2022/05/25 05:06:06;;;;;;;;;5.75;5.75;;;;;13.50;64.80;101359.06;6315792;22;45410;-86
2022/05/25 05:08:33;;;;;;;;;4.00;4.00;;;;;13.53;64.62;101372.28;6340200;22;45381;-83
2022/05/25 05:11:09;;;;;;;;;4.00;4.00;;;;;13.55;64.52;101365.19;6313272;22;46778;-84
2022/05/25 05:13:36;;;;;;;;;4.50;4.50;;;;;13.56;64.83;101369.63;6313868;22;45187;-83
2022/05/25 05:16:08;;;;;;;;;5.50;5.50;;;;;13.56;64.50;101375.78;6314084;22;45192;-82
2022/05/25 05:18:37;;;;;;;;;7.00;7.00;;;;;13.53;64.61;101378.47;6313432;22;45371;-82
2022/05/25 05:21:04;;;;;;;;;13.50;12.50;;;;;13.60;64.86;101385.44;6342046;22;45277;-81
2022/05/25 05:23:29;;;;;;;;;11.25;9.75;;;;;13.57;64.63;101384.59;6341646;22;45403;-81
2022/05/25 05:25:55;;;;;;;;;8.00;8.00;;;;;13.60;64.98;101380.16;6339896;22;45350;-81
2022/05/25 05:28:24;;;;;;;;;5.50;5.50;;;;;13.64;64.84;101379.28;6342109;22;45454;-80
2022/05/25 05:30:53;;;;;;;;;5.50;5.00;;;;;13.72;64.53;101381.88;6313126;22;48130;-80
2022/05/25 05:33:20;;;;;;;;;6.25;6.25;;;;;13.73;64.33;101372.16;6335185;22;45405;-81
2022/05/25 05:35:51;;;;;;;;;5.00;4.50;;;;;13.77;64.50;101365.97;6342592;22;45239;-81
2022/05/25 05:38:18;;;;;;;;;4.50;4.50;;;;;13.81;64.11;101370.34;6344253;22;45318;-81
2022/05/25 05:41:15;;;;;;;;;7.00;5.75;;;;;13.82;63.96;101367.69;6341685;22;45943;-81
2022/05/25 05:43:40;;;;;;;;;7.00;4.75;;;;;13.83;64.26;101357.97;6299730;22;45279;-83
2022/05/25 05:46:07;;;;;;;;;6.00;5.00;;;;;13.88;64.11;101365.00;6282148;22;45399;-83
2022/05/25 05:48:36;;;;;;;;;5.75;5.00;;;;;13.88;63.98;101361.47;6281710;22;45872;-82
2022/05/25 05:51:04;;;;;;;;;3.00;3.00;;;;;13.94;63.68;101358.78;6281655;22;47545;-82
2022/05/25 05:53:30;;;;;;;;;6.00;6.00;;;;;13.99;63.06;101364.03;6308014;22;45311;-83
2022/05/25 05:55:57;;;;;;;;;2.75;2.75;;;;;13.96;63.18;101362.28;6282300;22;45310;-83
2022/05/25 05:58:23;;;;;;;;;4.75;3.25;;;;;13.97;63.09;101371.97;6308283;22;45489;-82
2022/05/25 06:00:48;;;;;;;;;4.50;3.00;;;;;13.99;62.70;101364.03;6282134;22;47190;-81
2022/05/25 06:03:15;;;;;;;;;6.25;4.00;;;;;14.02;62.36;101372.81;6310611;22;45302;-82
2022/05/25 06:05:41;;;;;;;;;4.00;3.00;;;;;14.05;62.58;101378.09;6308731;22;45200;-82
2022/05/25 06:08:11;;;;;;;;;7.25;5.25;;;;;14.05;62.32;101385.16;6311375;22;45181;-82
2022/05/25 06:10:37;;;;;;;;;4.25;4.25;;;;;14.09;62.66;101405.44;6283095;22;46328;-82
2022/05/25 06:13:03;;;;;;;;;1.50;0.50;;;;;14.12;62.58;101406.28;6309968;22;45286;-82
2022/05/25 06:20:57;;;;;;;;;5.00;3.00;;;;;14.12;62.21;101410.72;6314766;22;45702;-81
2022/05/25 06:23:23;;;;;;;;;3.25;3.25;;;;;14.17;61.76;101400.97;6324995;22;45321;-81
2022/05/25 06:25:48;;;;;;;;;4.50;4.25;;;;;14.16;61.77;101409.78;6291442;22;45358;-81
2022/05/25 06:28:14;;;;;;;;;4.50;3.50;;;;;14.19;61.72;101417.69;6312475;22;45389;-82
2022/05/25 06:30:39;;;;;;;;;3.25;3.00;;;;;14.18;61.46;101418.59;6309845;22;45614;-83
2022/05/25 06:33:05;;;;;;;;;5.00;4.75;;;;;14.22;61.53;101422.09;6310405;22;45257;-82
2022/05/25 06:35:32;;;;;;;;;3.00;3.00;;;;;14.24;61.46;101420.31;6317142;22;44620;-79
2022/05/25 06:38:05;;;;;;;;;3.50;2.50;;;;;14.26;61.47;101431.78;6322101;22;45223;-85
2022/05/25 06:40:31;;;;;;;;;5.00;5.00;;;;;14.29;61.00;101432.63;6310630;22;45388;-85
2022/05/25 06:43:02;;;;;;;;;5.00;3.50;;;;;14.33;61.09;101457.34;6303797;22;45156;-86
2022/05/25 06:45:27;;;;;;;;;2.00;2.00;;;;;14.37;60.85;101447.59;6313058;22;45367;-83
2022/05/25 06:48:05;;;;;;;;;2.00;2.00;;;;;14.42;60.55;101456.38;6313010;22;45446;-85
2022/05/25 06:50:31;;;;;;;;;3.25;2.25;;;;;14.43;60.09;101440.47;6341620;22;45287;-84
2022/05/25 06:53:02;;;;;;;;;2.00;2.00;;;;;14.51;60.05;101445.69;6309473;22;45233;-84
2022/05/25 06:55:28;;;;;;;;;2.50;2.50;;;;;14.53;60.02;101442.19;6310631;22;45391;-84
2022/05/25 06:58:09;;;;;;;;;;;;;;;;;;;;;
2022/05/25 07:00:48;;;;;;;;;2.25;2.25;;;;;14.65;59.10;101446.50;6338464;22;75382;-85
2022/05/25 07:03:16;;;;;;;;;4.00;2.25;;;;;14.72;58.98;101447.31;6339717;22;45573;-85
2022/05/25 07:05:41;;;;;;;;;4.50;3.75;;;;;14.78;58.90;101450.78;6311074;22;45316;-84
2022/05/25 07:08:13;;;;;;;;;2.50;2.50;;;;;14.87;58.62;101451.59;6337975;22;45432;-83
2022/05/25 07:10:51;;;;;;;;;1.75;1.75;;;;;14.91;58.29;101458.59;6310572;22;46965;-85
2022/05/25 07:13:29;;;;;;;;;2.50;2.50;;;;;14.94;57.85;101454.16;6313287;22;45288;-85
2022/05/25 07:16:04;;;;;;;;;4.00;4.00;;;;;14.98;57.53;101453.22;6311059;22;45535;-85
2022/05/25 07:18:33;;;;;;;;;2.00;1.00;;;;;15.07;57.52;101465.50;6323973;22;45964;-84
2022/05/25 07:21:10;;;;;;;;;2.00;2.00;;;;;15.14;57.87;101474.28;6338582;22;45639;-85
2022/05/25 07:32:23;;;;;;;;;1.00;1.00;;;;;15.45;55.98;101480.13;6241773;22;46167;-87
2022/05/25 07:35:18;;;;;;;;;2.00;1.67;;;;;15.56;56.10;101491.50;6354179;22;45306;-85
2022/05/25 07:37:53;;;;;;;;;1.00;0.00;;;;;15.64;55.59;101484.31;6342675;22;44735;-85
2022/05/25 07:40:31;;;;;;;;;0.67;0.67;;;;;15.71;55.65;101479.81;6328094;22;45371;-84
2022/05/25 07:43:09;;;;;;;;;0.33;0.00;;;;;15.82;54.73;101490.28;6300298;22;47249;-84
2022/05/25 07:45:50;;;;;;;;;1.00;1.00;;;;;15.90;53.85;101495.50;6352263;22;45188;-83
2022/05/25 07:48:16;;;;;;;;;2.33;2.00;;;;;15.95;53.92;101494.53;6350323;22;45469;-84
2022/05/25 07:50:43;;;;;;;;;2.33;1.00;;;;;16.02;53.67;101487.38;6342994;22;45331;-83
2022/05/25 07:55:56;;;;;;;;;0.00;0.00;;;;;16.18;51.44;101499.53;6359466;22;44613;-84
2022/05/25 07:58:27;;;;;;;;;0.67;0.67;;;;;16.23;51.21;101497.69;6364017;22;44713;-86
2022/05/25 08:18:03;;;;;;;;;;;;;;;;;;;;;
2022/05/25 08:20:30;;;;;;;;;0.00;0.00;;;;;16.67;48.43;101504.06;6122727;23;72888;-84
2022/05/25 08:23:06;;;;;;;;;;;;;;;;;;;;;
2022/05/25 08:25:39;;;;;;;;;1.33;1.00;;;;;16.81;47.75;101498.53;6172646;23;71352;-86
2022/05/25 08:28:05;;;;;;;;;0.00;0.00;;;;;16.87;47.62;101502.91;6261730;22;46893;-86
2022/05/25 08:30:37;;;;;;;;;0.00;0.00;;;;;16.88;47.44;101502.84;6313413;22;45268;-85
2022/05/25 08:33:03;;;;;;;;;2.33;1.00;;;;;16.95;47.88;101507.16;6341603;22;45724;-84
2022/05/25 08:35:31;;;;;;;;;0.00;0.00;;;;;17.04;47.29;101502.59;6313431;22;45285;-85
2022/05/25 08:38:01;;;;;;;;;0.67;0.00;;;;;17.13;46.99;101505.97;6341456;22;46269;-85
2022/05/25 08:40:43;;;;;;;;;0.00;0.00;;;;;17.19;46.85;101519.16;6339613;22;45188;-83
2022/05/25 08:43:39;;;;;;;;;0.00;0.00;;;;;17.19;46.28;101518.28;6339214;22;45159;-84
2022/05/25 08:46:13;;;;;;;;;0.00;0.00;;;;;17.15;45.87;101514.78;6339411;22;45254;-83
2022/05/25 08:49:40;;;;;;;;;;;;;;;;;;;;;
2022/05/25 08:52:30;;;;;;;;;;;;;;;;;;;;;
2022/05/25 08:55:10;;;;;;;;;0.00;0.00;;;;;17.22;45.25;101520.88;6340552;22;67988;-88
2022/05/25 08:57:48;;;;;;;;;0.00;0.00;;;;;17.24;45.02;101520.81;6339118;22;45229;-82
2022/05/25 09:00:17;;;;;;;;;0.00;0.00;;;;;17.28;44.72;101519.88;6342297;22;46421;-84
2022/05/25 09:03:34;;;;;;;;;1.00;0.00;;;;;17.33;45.21;101528.66;6339031;22;45184;-87
2022/05/25 09:06:47;;;;;;;;;;;;;;;;;;;;;
2022/05/25 09:10:10;;;;;;;;;1.00;0.00;;;;;17.44;44.13;101547.09;6206350;22;72802;-83
2022/05/25 09:13:17;;;;;;;;;2.00;0.67;;;;;17.46;44.02;101527.50;6062958;23;46407;-82
2022/05/25 09:19:51;;;;;;;;;0.00;0.00;;;;;17.54;43.74;101524.69;6198665;22;45453;-81
2022/05/25 09:30:11;;;;;;;;;;;;;;;;;;;;;
2022/05/25 09:39:53;;;;;;;;;;;;;;;;;;;;;
2022/05/25 09:42:48;;;;;;;;;0.00;0.00;;;;;17.95;43.30;101521.19;6305003;22;72765;-82
2022/05/25 09:45:15;;;;;;;;;1.00;1.00;;;;;18.02;43.31;101525.47;6305980;22;45310;-81
2022/05/25 09:47:49;;;;;;;;;0.00;0.00;;;;;18.03;42.91;101529.00;6307390;22;45302;-81
2022/05/25 09:50:58;;;;;;;;;0.33;0.33;;;;;18.05;43.24;101533.41;6280012;22;47719;-82
2022/05/25 09:53:26;;;;;;;;;0.00;0.00;;;;;18.08;43.12;101529.78;6264600;22;45383;-78
2022/05/25 09:56:00;;;;;;;;;0.00;0.00;;;;;18.10;43.13;101529.78;6307810;22;45576;-79
2022/05/25 09:58:40;;;;;;;;;0.00;0.00;;;;;18.13;42.98;101535.91;6307273;22;45386;-79
2022/05/25 10:01:18;;;;;;;;;0.67;0.67;;;;;18.24;43.23;101528.53;6277611;22;47413;-79
2022/05/25 10:03:45;;;;;;;;;0.33;0.33;;;;;18.38;43.16;101516.66;6306948;22;45127;-82
2022/05/25 10:06:28;;;;;;;;;0.00;0.00;;;;;18.41;43.11;101517.47;6280804;22;45262;-79
2022/05/25 10:09:06;;;;;;;;;0.00;0.00;;;;;18.46;42.67;101530.69;6306620;22;45382;-80
2022/05/25 10:11:46;;;;;;;;;0.67;0.67;;;;;18.54;42.81;101528.72;6303994;22;47451;-80
2022/05/25 10:14:23;;;;;;;;;0.00;0.00;;;;;18.57;42.38;101533.97;6279790;22;45394;-79
2022/05/25 10:16:49;;;;;;;;;0.00;0.00;;;;;18.56;42.47;101524.22;6279403;22;45261;-79
2022/05/25 10:19:17;;;;;;;;;0.00;0.00;;;;;18.60;42.17;101525.91;6278401;22;45368;-79
2022/05/25 10:21:55;;;;;;;;;0.00;0.00;;;;;18.70;42.31;101524.75;6277538;22;47480;-80
2022/05/25 10:24:27;;;;;;;;;0.00;0.00;;;;;18.81;42.05;101534.31;6307782;22;45315;-81
2022/05/25 10:27:02;;;;;;;;;1.00;1.00;;;;;18.94;41.79;101525.09;6308348;22;45319;-79
2022/05/25 10:38:28;;;;;;;;;0.00;0.00;;;;;19.12;40.99;101521.94;6340104;22;45186;-80
2022/05/25 10:40:58;;;;;;;;;0.00;0.00;;;;;19.15;40.08;101524.53;6338502;22;45261;-80
2022/05/25 10:43:29;;;;;;;;;0.00;0.00;;;;;19.16;40.40;101517.38;6338518;22;45354;-81
2022/05/25 10:45:56;;;;;;;;;0.00;0.00;;;;;19.19;40.12;101503.94;6340594;22;45799;-83
2022/05/25 10:48:57;;;;;;;;;0.00;0.00;;;;;19.33;39.90;101507.13;6339230;22;45265;-82
2022/05/25 10:51:42;;;;;;;;;0.33;0.33;;;;;19.49;39.74;101517.41;6263834;22;45255;-80
2022/05/25 10:54:47;;;;;;;;;0.00;0.00;;;;;19.57;40.06;101516.25;6310988;22;47366;-80
2022/05/25 10:57:54;;;;;;;;;0.33;0.33;;;;;19.66;39.76;101522.25;6324371;22;45558;-78
2022/05/25 11:00:36;;;;;;;;;0.00;0.00;;;;;19.79;39.28;101531.69;6301764;22;45325;-80
2022/05/25 11:03:16;;;;;;;;;0.00;0.00;;;;;19.90;39.08;101528.69;6309403;22;45460;-81
2022/05/25 11:06:15;;;;;;;;;0.00;0.00;;;;;20.05;38.82;101526.44;6336496;22;47457;-83
2022/05/25 11:08:59;;;;;;;;;0.00;0.00;;;;;20.25;38.83;101532.94;6336508;22;45417;-84
2022/05/25 11:11:55;;;;;;;;;0.00;0.00;;;;;20.35;38.39;101533.53;6337723;22;45281;-84
2022/05/25 11:14:33;;;;;;;;;0.00;0.00;;;;;20.41;39.07;101533.34;6337663;22;45403;-84
2022/05/25 11:17:26;;;;;;;;;0.33;0.00;;;;;20.53;38.29;101524.03;6335181;22;46099;-82
2022/05/25 11:20:30;;;;;;;;;0.00;0.00;;;;;20.70;38.41;101533.28;6310545;22;45981;-86
2022/05/25 11:23:13;;;;;;;;;0.00;0.00;;;;;20.86;38.27;101519.41;6335297;22;45432;-84
2022/05/25 11:25:48;;;;;;;;;0.00;0.00;;;;;21.01;38.03;101518.00;6339582;22;45263;-82
2022/05/25 11:28:51;;;;;;;;;0.00;0.00;;;;;21.19;37.53;101521.84;6336696;22;48049;-85
2022/05/25 11:31:36;;;;;;;;;0.00;0.00;;;;;21.39;36.98;101530.06;6337269;22;45255;-86
2022/05/25 11:34:09;;;;;;;;;0.00;0.00;;;;;21.55;36.67;101528.56;6338208;22;45400;-82
2022/05/25 11:37:07;;;;;;;;;0.00;0.00;;;;;21.63;36.17;101514.91;6336514;22;45315;-87
2022/05/25 11:39:47;;;;;;;;;0.00;0.00;;;;;21.67;36.50;101521.88;6269494;22;46195;-85
2022/05/25 11:42:22;;;;;;;;;0.00;0.00;;;;;21.75;36.56;101518.91;6336879;22;45405;-84
2022/05/25 11:45:05;;;;;;;;;0.00;0.00;;;;;21.89;35.94;101513.00;6340221;22;45202;-83
2022/05/25 11:47:55;;;;;;;;;0.00;0.00;;;;;21.96;36.46;101518.09;6337144;22;45426;-82
2022/05/25 11:50:36;;;;;;;;;0.67;0.67;;;;;21.96;36.30;101528.81;6338119;22;47144;-81
2022/05/25 11:53:18;;;;;;;;;2.00;1.00;;;;;21.97;36.04;101509.13;6336919;22;45821;-82
2022/05/25 11:55:56;;;;;;;;;0.00;0.00;;;;;22.02;36.05;101520.53;6338993;22;45349;-81
2022/05/25 11:58:43;;;;;;;;;0.00;0.00;;;;;22.04;35.26;101509.75;6339490;22;45398;-82
2022/05/25 12:01:25;;;;;;;;;0.67;0.00;;;;;22.06;35.36;101515.06;6311185;22;47456;-84
2022/05/25 12:04:14;;;;;;;;;0.00;0.00;;;;;22.14;35.09;101513.81;6339532;22;45402;-85
2022/05/25 12:07:19;;;;;;;;;0.00;0.00;;;;;22.28;35.13;101515.97;6337432;22;45280;-86
2022/05/25 12:10:06;;;;;;;;;0.00;0.00;;;;;22.52;34.50;101524.84;6336880;22;45336;-84
2022/05/25 12:23:05;;;;;;;;;1.67;0.33;;;;;23.24;33.51;101532.53;6240627;22;45478;-80
2022/05/25 12:28:50;;;;;;;;;0.00;0.00;;;;;23.26;33.45;101516.38;6211979;22;45506;-79
2022/05/25 12:34:50;;;;;;;;;0.00;0.00;;;;;23.38;32.94;101534.59;6175232;22;45486;-80
2022/05/25 12:37:36;;;;;;;;;0.33;0.00;;;;;23.38;32.85;101521.16;6310927;22;48119;-82
2022/05/25 12:40:26;;;;;;;;;0.00;0.00;;;;;23.36;32.91;101525.72;6339894;22;45518;-82
2022/05/25 12:42:54;;;;;;;;;0.00;0.00;;;;;23.35;33.62;101524.00;6337743;22;45424;-81
2022/05/25 12:49:04;;;;;;;;;0.00;0.00;;;;;22.88;33.20;101513.47;6339621;22;45425;-81
2022/05/25 12:51:51;;;;;;;;;0.00;0.00;;;;;22.76;33.01;101530.13;6311761;22;45441;-81
2022/05/25 12:54:55;;;;;;;;;;;;;;;;;;;;;
2022/05/25 12:57:37;;;;;;;;;0.33;0.00;;;;;22.87;33.33;101517.13;6329620;22;72866;-82
2022/05/25 13:00:27;;;;;;;;;0.00;0.00;;;;;22.97;32.98;101528.38;6338537;22;46519;-84
2022/05/25 13:02:53;;;;;;;;;0.00;0.00;;;;;22.94;32.96;101520.44;6299700;22;45379;-83
2022/05/25 13:05:46;;;;;;;;;0.00;0.00;;;;;22.90;32.88;101522.34;6337027;22;45388;-83
2022/05/25 13:08:46;;;;;;;;;0.00;0.00;;;;;22.94;33.22;101521.28;6336471;22;45629;-83
2022/05/25 13:11:32;;;;;;;;;0.00;0.00;;;;;23.05;33.19;101499.38;6337887;22;47520;-83
2022/05/25 13:14:20;;;;;;;;;0.00;0.00;;;;;23.14;32.96;101509.69;6337189;22;45530;-83
2022/05/25 13:16:47;;;;;;;;;0.00;0.00;;;;;23.20;32.77;101517.50;6261914;22;45431;-83
2022/05/25 13:19:37;;;;;;;;;0.33;0.00;;;;;23.24;32.60;101521.78;6336164;22;46094;-83
2022/05/25 13:22:03;;;;;;;;;0.00;0.00;;;;;23.28;32.65;101518.03;6308130;22;47152;-82
2022/05/25 13:25:02;;;;;;;;;0.00;0.00;;;;;23.33;32.74;101524.09;6338808;22;45337;-82
2022/05/25 13:28:13;;;;;;;;;0.00;0.00;;;;;23.49;32.56;101532.31;6337236;22;45358;-82
2022/05/25 13:30:38;;;;;;;;;0.67;0.00;;;;;23.54;32.41;101522.22;6318408;22;45346;-84
2022/05/25 13:33:19;;;;;;;;;0.00;0.00;;;;;23.64;32.12;101522.69;6339139;22;46133;-83
2022/05/25 13:35:55;;;;;;;;;0.00;0.00;;;;;23.67;31.84;101527.91;6339005;22;45323;-82
2022/05/25 13:39:01;;;;;;;;;0.33;0.00;;;;;23.70;32.12;101538.53;6309420;22;45437;-81
2022/05/25 13:45:20;;;;;;;;;0.00;0.00;;;;;23.72;31.83;101531.31;6230655;22;45432;-81
2022/05/25 13:54:59;;;;;;;;;1.00;1.00;;;;;23.33;32.54;101515.13;6014396;23;45727;-84